VOZ537 YSSY-YBCG
Flight info
| Callsign | VOZ537 |
|---|---|
| Flight time | 1h 5m |
| Altitude | 33000 |
| Route | TESAT H252 OLSEM Y193 BANDA Y43 GREAV DCT GOMOL |
| Aircraft | B738/M-SDE2E3FGHIRWXY/LB1 |
Departure
| Time | 2026-05-04 06:42 |
|---|---|
| Airport | Sydney Kingsford Smith International Airport (YSSY) |
Arrival
| Time | 2026-05-04 07:47 |
|---|---|
| Airport | Gold Coast Airport (YBCG) |
| Time | Latitude | Longitude | Altitude | Speed | Heading |
|---|---|---|---|---|---|
| 2026-05-04 05:52 | -33.93510 | 151.18004 | 29 ft | 0 kts | 288° |
| 2026-05-04 06:25 | -33.93515 | 151.18025 | 29 ft | 3 kts | 278° |
| 2026-05-04 06:25 | -33.93516 | 151.18049 | 29 ft | 3 kts | 260° |
| 2026-05-04 06:26 | -33.93510 | 151.18071 | 29 ft | 3 kts | 234° |
| 2026-05-04 06:26 | -33.93503 | 151.18081 | 29 ft | 2 kts | 223° |
| 2026-05-04 06:26 | -33.93510 | 151.18075 | 29 ft | 3 kts | 213° |
| 2026-05-04 06:26 | -33.93529 | 151.18068 | 29 ft | 3 kts | 191° |
| 2026-05-04 06:27 | -33.93546 | 151.18065 | 29 ft | 0 kts | 190° |
| 2026-05-04 06:29 | -33.93571 | 151.18059 | 29 ft | 10 kts | 190° |
| 2026-05-04 06:30 | -33.93647 | 151.18051 | 29 ft | 12 kts | 182° |
| 2026-05-04 06:30 | -33.93735 | 151.18063 | 29 ft | 13 kts | 178° |
| 2026-05-04 06:30 | -33.93789 | 151.17990 | 29 ft | 13 kts | 253° |
| 2026-05-04 06:30 | -33.93816 | 151.17875 | 29 ft | 16 kts | 254° |
| 2026-05-04 06:31 | -33.93849 | 151.17786 | 29 ft | 11 kts | 218° |
| 2026-05-04 06:31 | -33.93939 | 151.17790 | 28 ft | 16 kts | 167° |
| 2026-05-04 06:31 | -33.94059 | 151.17821 | 28 ft | 18 kts | 168° |
| 2026-05-04 06:31 | -33.94180 | 151.17851 | 29 ft | 18 kts | 168° |
| 2026-05-04 06:32 | -33.94298 | 151.17881 | 29 ft | 17 kts | 167° |
| 2026-05-04 06:33 | -33.95087 | 151.18171 | 29 ft | 16 kts | 78° |
| 2026-05-04 06:34 | -33.95062 | 151.18311 | 29 ft | 15 kts | 78° |
| 2026-05-04 06:34 | -33.95048 | 151.18392 | 29 ft | 8 kts | 78° |
| 2026-05-04 06:34 | -33.95047 | 151.18475 | 29 ft | 13 kts | 113° |
| 2026-05-04 06:34 | -33.95120 | 151.18549 | 29 ft | 16 kts | 139° |
| 2026-05-04 06:35 | -33.95219 | 151.18656 | 29 ft | 23 kts | 141° |
| 2026-05-04 06:36 | -33.96387 | 151.18996 | 29 ft | 26 kts | 168° |
| 2026-05-04 06:37 | -33.96571 | 151.19044 | 29 ft | 25 kts | 167° |
| 2026-05-04 06:37 | -33.96736 | 151.19072 | 29 ft | 23 kts | 187° |
| 2026-05-04 06:37 | -33.96893 | 151.19084 | 29 ft | 22 kts | 168° |
| 2026-05-04 06:37 | -33.96999 | 151.19111 | 29 ft | 9 kts | 168° |
| 2026-05-04 06:38 | -33.97041 | 151.19122 | 29 ft | 6 kts | 168° |
| 2026-05-04 06:38 | -33.97081 | 151.19133 | 29 ft | 6 kts | 166° |
| 2026-05-04 06:40 | -33.97104 | 151.19317 | 27 ft | 14 kts | 78° |
| 2026-05-04 06:40 | -33.97067 | 151.19369 | 27 ft | 8 kts | 6° |
| 2026-05-04 06:40 | -33.97022 | 151.19362 | 24 ft | 0 kts | 348° |
| 2026-05-04 06:41 | -33.97021 | 151.19361 | 25 ft | 3 kts | 348° |
| 2026-05-04 06:41 | -33.96743 | 151.19290 | 22 ft | 87 kts | 348° |
| 2026-05-04 06:41 | -33.95871 | 151.19066 | 91 ft | 161 kts | 349° |
| 2026-05-04 06:42 | -33.94708 | 151.18796 | 914 ft | 175 kts | 360° |
| 2026-05-04 06:42 | -33.93539 | 151.19238 | 1811 ft | 180 kts | 26° |
| 2026-05-04 06:42 | -33.92461 | 151.20010 | 2683 ft | 188 kts | 24° |
| 2026-05-04 06:44 | -33.83334 | 151.28575 | 5005 ft | 270 kts | 63° |
| 2026-05-04 06:44 | -33.82735 | 151.30733 | 5007 ft | 272 kts | 66° |
| 2026-05-04 06:44 | -33.82165 | 151.32915 | 5224 ft | 275 kts | 67° |
| 2026-05-04 06:45 | -33.81590 | 151.35125 | 6054 ft | 278 kts | 66° |
| 2026-05-04 06:45 | -33.80723 | 151.37152 | 6945 ft | 272 kts | 47° |
| 2026-05-04 06:45 | -33.79497 | 151.38988 | 7314 ft | 295 kts | 44° |
| 2026-05-04 06:45 | -33.78114 | 151.40965 | 7539 ft | 323 kts | 45° |
| 2026-05-04 06:46 | -33.76633 | 151.43092 | 8043 ft | 338 kts | 45° |
| 2026-05-04 06:46 | -33.75635 | 151.44540 | 8557 ft | 341 kts | 46° |
| 2026-05-04 06:46 | -33.74118 | 151.46762 | 9379 ft | 347 kts | 46° |
| 2026-05-04 06:46 | -33.72080 | 151.49764 | 10404 ft | 353 kts | 46° |
| 2026-05-04 06:48 | -33.60379 | 151.64162 | 15208 ft | 371 kts | 27° |
| 2026-05-04 06:48 | -33.58174 | 151.65805 | 15852 ft | 375 kts | 27° |
| 2026-05-04 06:49 | -33.55960 | 151.67500 | 16499 ft | 380 kts | 28° |
| 2026-05-04 06:50 | -33.38676 | 151.76024 | 20490 ft | 397 kts | 9° |
| 2026-05-04 06:51 | -33.35986 | 151.76876 | 21007 ft | 401 kts | 9° |
| 2026-05-04 06:51 | -33.33276 | 151.77747 | 21507 ft | 405 kts | 9° |
| 2026-05-04 06:51 | -33.30580 | 151.78619 | 22006 ft | 409 kts | 9° |
| 2026-05-04 06:51 | -33.27823 | 151.79512 | 22501 ft | 412 kts | 9° |
| 2026-05-04 06:52 | -33.25046 | 151.80411 | 22991 ft | 415 kts | 9° |
| 2026-05-04 06:52 | -33.22246 | 151.81316 | 23474 ft | 419 kts | 9° |
| 2026-05-04 06:52 | -33.19427 | 151.82225 | 23884 ft | 422 kts | 8° |
| 2026-05-04 06:52 | -33.16589 | 151.83141 | 24340 ft | 422 kts | 8° |
| 2026-05-04 06:53 | -33.13752 | 151.84057 | 24833 ft | 422 kts | 8° |
| 2026-05-04 06:53 | -33.10915 | 151.84971 | 25294 ft | 423 kts | 8° |
| 2026-05-04 06:53 | -33.08072 | 151.85885 | 25735 ft | 424 kts | 8° |
| 2026-05-04 06:53 | -33.05220 | 151.86801 | 26155 ft | 425 kts | 7° |
| 2026-05-04 06:54 | -33.02368 | 151.87718 | 26699 ft | 423 kts | 7° |
| 2026-05-04 06:54 | -32.99538 | 151.88629 | 27348 ft | 418 kts | 7° |
| 2026-05-04 06:54 | -32.96748 | 151.89528 | 28045 ft | 412 kts | 7° |
| 2026-05-04 06:54 | -32.93997 | 151.90414 | 28739 ft | 407 kts | 6° |
| 2026-05-04 06:55 | -32.91274 | 151.91288 | 29395 ft | 403 kts | 6° |
| 2026-05-04 06:55 | -32.88576 | 151.92151 | 29992 ft | 400 kts | 6° |
| 2026-05-04 06:55 | -32.85894 | 151.93008 | 30443 ft | 399 kts | 5° |
| 2026-05-04 06:55 | -32.83208 | 151.93861 | 30723 ft | 402 kts | 5° |
| 2026-05-04 06:56 | -32.80491 | 151.94722 | 30977 ft | 405 kts | 5° |
| 2026-05-04 06:57 | -32.61289 | 152.00832 | 33004 ft | 415 kts | 3° |
| 2026-05-04 06:58 | -32.55693 | 152.02607 | 33017 ft | 416 kts | 3° |
| 2026-05-04 06:58 | -32.50157 | 152.04374 | 33012 ft | 410 kts | 2° |
| 2026-05-04 06:59 | -32.44755 | 152.06083 | 33014 ft | 413 kts | 3° |
| 2026-05-04 06:59 | -32.39031 | 152.07886 | 33030 ft | 424 kts | 2° |
| 2026-05-04 07:01 | -32.18162 | 152.14461 | 33027 ft | 457 kts | 4° |
| 2026-05-04 07:01 | -32.15092 | 152.15433 | 33018 ft | 455 kts | 4° |
| 2026-05-04 07:02 | -32.09025 | 152.17356 | 33025 ft | 449 kts | 3° |
| 2026-05-04 07:02 | -32.02993 | 152.19249 | 33028 ft | 449 kts | 3° |
| 2026-05-04 07:03 | -31.96958 | 152.21137 | 33014 ft | 449 kts | 3° |
| 2026-05-04 07:03 | -31.90966 | 152.23010 | 33028 ft | 449 kts | 3° |
| 2026-05-04 07:04 | -31.84930 | 152.24897 | 33028 ft | 449 kts | 3° |
| 2026-05-04 07:04 | -31.78885 | 152.26784 | 33040 ft | 450 kts | 3° |
| 2026-05-04 07:05 | -31.72832 | 152.28670 | 33043 ft | 450 kts | 3° |
| 2026-05-04 07:05 | -31.66769 | 152.30558 | 33050 ft | 451 kts | 3° |
| 2026-05-04 07:06 | -31.57649 | 152.33391 | 33045 ft | 453 kts | 3° |
| 2026-05-04 07:07 | -31.51555 | 152.35282 | 33047 ft | 453 kts | 3° |
| 2026-05-04 07:09 | -31.27110 | 152.42843 | 33060 ft | 455 kts | 3° |
| 2026-05-04 07:09 | -31.20990 | 152.44729 | 33063 ft | 455 kts | 3° |
| 2026-05-04 07:10 | -31.14865 | 152.46613 | 33075 ft | 456 kts | 3° |
| 2026-05-04 07:12 | -30.90313 | 152.54146 | 33064 ft | 458 kts | 4° |
| 2026-05-04 07:12 | -30.84152 | 152.56031 | 33072 ft | 458 kts | 4° |
| 2026-05-04 07:13 | -30.78003 | 152.58086 | 33071 ft | 467 kts | 9° |
| 2026-05-04 07:13 | -30.71927 | 152.60891 | 33075 ft | 472 kts | 11° |
| 2026-05-04 07:14 | -30.56721 | 152.68097 | 33079 ft | 472 kts | 11° |
| 2026-05-04 07:15 | -30.50621 | 152.70915 | 33081 ft | 471 kts | 11° |
| 2026-05-04 07:15 | -30.44531 | 152.73723 | 33081 ft | 471 kts | 11° |
| 2026-05-04 07:16 | -30.38502 | 152.76501 | 33081 ft | 471 kts | 11° |
| 2026-05-04 07:16 | -30.32405 | 152.79308 | 33102 ft | 471 kts | 11° |
| 2026-05-04 07:17 | -30.26308 | 152.82111 | 33086 ft | 472 kts | 11° |
| 2026-05-04 07:17 | -30.20211 | 152.84912 | 33095 ft | 471 kts | 11° |
| 2026-05-04 07:18 | -30.14110 | 152.87711 | 33103 ft | 472 kts | 11° |
| 2026-05-04 07:18 | -30.08007 | 152.90504 | 33105 ft | 472 kts | 11° |
| 2026-05-04 07:19 | -30.01945 | 152.93276 | 33101 ft | 466 kts | 11° |
| 2026-05-04 07:19 | -29.95918 | 152.96024 | 33090 ft | 466 kts | 11° |
| 2026-05-04 07:20 | -29.89895 | 152.98765 | 33094 ft | 466 kts | 11° |
| 2026-05-04 07:20 | -29.83857 | 153.01510 | 33052 ft | 467 kts | 11° |
| 2026-05-04 07:22 | -29.62652 | 153.11132 | 30089 ft | 467 kts | 13° |
| 2026-05-04 07:22 | -29.59625 | 153.12502 | 29558 ft | 467 kts | 13° |
| 2026-05-04 07:23 | -29.56601 | 153.13869 | 29067 ft | 467 kts | 13° |
| 2026-05-04 07:23 | -29.53578 | 153.15236 | 28582 ft | 466 kts | 13° |
| 2026-05-04 07:23 | -29.50560 | 153.16600 | 28117 ft | 466 kts | 14° |
| 2026-05-04 07:23 | -29.47536 | 153.17964 | 27655 ft | 470 kts | 14° |
| 2026-05-04 07:24 | -29.44478 | 153.19340 | 27164 ft | 474 kts | 14° |
| 2026-05-04 07:24 | -29.41446 | 153.20705 | 26696 ft | 475 kts | 14° |
| 2026-05-04 07:24 | -29.38371 | 153.22091 | 26213 ft | 475 kts | 15° |
| 2026-05-04 07:24 | -29.35294 | 153.23478 | 25734 ft | 475 kts | 15° |
| 2026-05-04 07:25 | -29.32225 | 153.24860 | 25254 ft | 474 kts | 15° |
| 2026-05-04 07:26 | -29.11555 | 153.34145 | 21808 ft | 444 kts | 16° |
| 2026-05-04 07:27 | -29.08686 | 153.35428 | 21341 ft | 441 kts | 17° |
| 2026-05-04 07:27 | -29.05835 | 153.36704 | 20889 ft | 439 kts | 17° |
| 2026-05-04 07:27 | -29.02998 | 153.37972 | 20428 ft | 436 kts | 17° |
| 2026-05-04 07:27 | -29.00178 | 153.39232 | 19972 ft | 434 kts | 17° |
| 2026-05-04 07:28 | -28.97373 | 153.40484 | 19525 ft | 432 kts | 17° |
| 2026-05-04 07:28 | -28.94581 | 153.41731 | 19055 ft | 430 kts | 17° |
| 2026-05-04 07:28 | -28.91804 | 153.42970 | 18594 ft | 428 kts | 17° |
| 2026-05-04 07:28 | -28.89039 | 153.44203 | 18095 ft | 425 kts | 18° |
| 2026-05-04 07:29 | -28.86299 | 153.45425 | 17605 ft | 421 kts | 18° |
| 2026-05-04 07:29 | -28.83588 | 153.46632 | 17143 ft | 416 kts | 18° |
| 2026-05-04 07:29 | -28.80901 | 153.47828 | 16616 ft | 414 kts | 18° |
| 2026-05-04 07:29 | -28.78229 | 153.49016 | 16169 ft | 410 kts | 18° |
| 2026-05-04 07:30 | -28.75580 | 153.50195 | 15728 ft | 407 kts | 18° |
| 2026-05-04 07:30 | -28.72956 | 153.51361 | 15285 ft | 404 kts | 19° |
| 2026-05-04 07:30 | -28.70346 | 153.52521 | 14836 ft | 401 kts | 19° |
| 2026-05-04 07:30 | -28.67752 | 153.53673 | 14394 ft | 400 kts | 19° |
| 2026-05-04 07:31 | -28.65162 | 153.54822 | 13786 ft | 401 kts | 19° |
| 2026-05-04 07:31 | -28.62606 | 153.55955 | 13229 ft | 398 kts | 19° |
| 2026-05-04 07:33 | -28.45174 | 153.63209 | 10353 ft | 372 kts | 17° |
| 2026-05-04 07:33 | -28.42747 | 153.64108 | 9953 ft | 359 kts | 18° |
| 2026-05-04 07:33 | -28.40430 | 153.64979 | 9486 ft | 343 kts | 18° |
| 2026-05-04 07:33 | -28.38209 | 153.65808 | 9019 ft | 330 kts | 18° |
| 2026-05-04 07:34 | -28.36059 | 153.66590 | 8553 ft | 319 kts | 18° |
| 2026-05-04 07:34 | -28.33973 | 153.67344 | 8081 ft | 310 kts | 18° |
| 2026-05-04 07:34 | -28.31943 | 153.68078 | 7621 ft | 302 kts | 18° |
| 2026-05-04 07:34 | -28.29962 | 153.68795 | 7171 ft | 295 kts | 17° |
| 2026-05-04 07:35 | -28.28641 | 153.69088 | 6861 ft | 292 kts | 3° |
| 2026-05-04 07:35 | -28.26011 | 153.68542 | 6211 ft | 287 kts | 342° |
| 2026-05-04 07:35 | -28.24769 | 153.68036 | 5889 ft | 285 kts | 341° |
| 2026-05-04 07:35 | -28.22921 | 153.67261 | 5402 ft | 282 kts | 341° |
| 2026-05-04 07:36 | -28.21098 | 153.66504 | 5071 ft | 274 kts | 341° |
| 2026-05-04 07:36 | -28.19332 | 153.65784 | 4819 ft | 268 kts | 341° |
| 2026-05-04 07:38 | -28.07301 | 153.60961 | 4516 ft | 262 kts | 342° |
| 2026-05-04 07:38 | -28.05578 | 153.60272 | 4511 ft | 263 kts | 342° |
| 2026-05-04 07:38 | -28.03851 | 153.59581 | 4516 ft | 264 kts | 342° |
| 2026-05-04 07:38 | -28.02120 | 153.58890 | 4497 ft | 264 kts | 342° |
| 2026-05-04 07:39 | -28.00441 | 153.58094 | 4497 ft | 259 kts | 332° |
| 2026-05-04 07:39 | -27.98911 | 153.57113 | 4483 ft | 247 kts | 331° |
| 2026-05-04 07:39 | -27.97455 | 153.56172 | 4479 ft | 235 kts | 331° |
| 2026-05-04 07:39 | -27.96059 | 153.55264 | 4185 ft | 235 kts | 332° |
| 2026-05-04 07:40 | -27.94593 | 153.54306 | 3757 ft | 246 kts | 331° |
| 2026-05-04 07:40 | -27.93085 | 153.53320 | 3532 ft | 255 kts | 331° |
| 2026-05-04 07:40 | -27.91769 | 153.52015 | 3248 ft | 261 kts | 301° |
| 2026-05-04 07:40 | -27.91341 | 153.50063 | 3009 ft | 259 kts | 264° |
| 2026-05-04 07:41 | -27.92000 | 153.48230 | 2755 ft | 253 kts | 226° |
| 2026-05-04 07:41 | -27.93462 | 153.47239 | 2554 ft | 244 kts | 188° |
| 2026-05-04 07:41 | -27.95118 | 153.46995 | 2532 ft | 238 kts | 188° |
| 2026-05-04 07:41 | -27.96667 | 153.46481 | 2519 ft | 226 kts | 203° |
| 2026-05-04 07:42 | -27.97976 | 153.45614 | 2496 ft | 211 kts | 213° |
| 2026-05-04 07:42 | -27.99084 | 153.44624 | 2489 ft | 197 kts | 219° |
| 2026-05-04 07:42 | -28.00104 | 153.43587 | 2494 ft | 194 kts | 221° |
| 2026-05-04 07:42 | -28.01071 | 153.42591 | 2483 ft | 183 kts | 212° |
| 2026-05-04 07:43 | -28.02238 | 153.42321 | 2516 ft | 173 kts | 164° |
| 2026-05-04 07:43 | -28.03412 | 153.42706 | 2505 ft | 177 kts | 160° |
| 2026-05-04 07:43 | -28.04559 | 153.43199 | 2446 ft | 176 kts | 156° |
| 2026-05-04 07:43 | -28.05661 | 153.43738 | 2245 ft | 167 kts | 152° |
| 2026-05-04 07:44 | -28.06651 | 153.44321 | 2033 ft | 155 kts | 149° |
| 2026-05-04 07:44 | -28.07575 | 153.44905 | 1830 ft | 148 kts | 148° |
| 2026-05-04 07:44 | -28.08442 | 153.45459 | 1658 ft | 140 kts | 149° |
| 2026-05-04 07:44 | -28.09255 | 153.45978 | 1457 ft | 132 kts | 149° |
| 2026-05-04 07:45 | -28.10066 | 153.46498 | 1293 ft | 136 kts | 148° |
| 2026-05-04 07:45 | -28.10887 | 153.47023 | 1116 ft | 135 kts | 148° |
| 2026-05-04 07:45 | -28.11706 | 153.47548 | 943 ft | 135 kts | 149° |
| 2026-05-04 07:45 | -28.12511 | 153.48062 | 750 ft | 130 kts | 148° |
| 2026-05-04 07:46 | -28.13275 | 153.48574 | 544 ft | 128 kts | 148° |
| 2026-05-04 07:46 | -28.14041 | 153.49054 | 432 ft | 126 kts | 149° |
| 2026-05-04 07:46 | -28.14798 | 153.49532 | 280 ft | 125 kts | 148° |
| 2026-05-04 07:46 | -28.15554 | 153.50012 | 99 ft | 123 kts | 149° |
| 2026-05-04 07:47 | -28.16272 | 153.50469 | 26 ft | 107 kts | 151° |
| 2026-05-04 07:47 | -28.16785 | 153.50794 | 27 ft | 63 kts | 150° |
| 2026-05-04 07:47 | -28.17043 | 153.50956 | 27 ft | 31 kts | 151° |
| 2026-05-04 07:49 | -28.17337 | 153.51361 | 26 ft | 9 kts | 328° |
| 2026-05-04 07:49 | -28.17284 | 153.51325 | 26 ft | 9 kts | 330° |
| 2026-05-04 07:49 | -28.17208 | 153.51276 | 29 ft | 15 kts | 330° |
| 2026-05-04 07:50 | -28.17117 | 153.51218 | 27 ft | 15 kts | 331° |
| 2026-05-04 07:50 | -28.17026 | 153.51161 | 28 ft | 14 kts | 331° |
| 2026-05-04 07:50 | -28.16947 | 153.51111 | 26 ft | 10 kts | 331° |
| 2026-05-04 07:50 | -28.16891 | 153.51095 | 27 ft | 8 kts | 17° |
| 2026-05-04 07:51 | -28.16849 | 153.51130 | 26 ft | 6 kts | 25° |
| 2026-05-04 07:51 | -28.16823 | 153.51147 | 25 ft | 3 kts | 54° |
| 2026-05-04 07:51 | -28.16813 | 153.51174 | 28 ft | 4 kts | 66° |
| 2026-05-04 07:51 | -28.16799 | 153.51203 | 26 ft | 4 kts | 60° |
| 2026-05-04 07:52 | -28.16785 | 153.51231 | 27 ft | 4 kts | 61° |
| 2026-05-04 07:52 | -28.16779 | 153.51243 | 26 ft | 0 kts | 60° |
| 2026-05-04 07:52 | -28.16778 | 153.51244 | 25 ft | 0 kts | 60° |